SBRFSBJP

Guest
Details From SBRF - Recife Intl
To SBJP - Presidente Castro Pinto
Flight Number -
Tags generated
Created
Modified
Stats Distance 60 nm / 111 km
Max Altitude 200 ft / 61 m
Waypoints 3
Social Downloads 3
Likes 0
Share VATSIM

Download

Looking for another format? Having issues loading an existing format? Contact us
Advertisement - Login to hide

Notes

Basic altitude profile: - Ascent Rate: 2500ft/min - Ascent Speed: 250kts - Cruise Altitude: 35000ft - Cruise Speed: 420kts - Descent Rate: 1500ft/min - Descent Speed: 250kts Options: - Use NATs: yes - Use PACOTS: yes - Use low airways: yes - Use high airways: yes

Route

SBRF REC SBJP

ID Type Via Altitude Latitude Longitude Leg Dist Tot Dist Heading (true) Name
O SBRF APT - 0 ft / 0 m -8.12790˚ -34.92298˚ - 0 nm - Recife Intl
REC VOR - 200 ft / 61 m -8.13659˚ -34.92730˚ 0 nm 0 nm 206° / 206° RECIFE VOR-DME
O SBJP APT - 0 ft / 0 m -7.14838˚ -34.95068˚ 59 nm 59 nm 359° / 359° Presidente Castro Pinto

Altitude Profile

Advertisement - Login to hide

SBRF

Details ICAO SBRF (REC)
Name Recife Intl
Region Brazil
Timezone America/Recife (UTC-3.0)
Stats Elevation 33 ft / 10 m (AMSL)
Location -8.127896° -34.922981°
Runways 2
Magnetic Variation 22.088° W

METAR

SBRF 120400Z 05006KT 9999 SCT018 27/23 Q1011

Decode

TAF

TAF SBRF 112200Z 1200/1224 03009KT 9999 SCT020 TN25/1208Z TX31/1215Z BECMG 1203/1205 33005KT BECMG 1210/1212 05011KT BECMG 1221/1222 04008KT RMK PEI

Decode

Departure Runways

ID Width Length Bearing (true) Bearing (mag) Surface Threshold Offset Overrun Length
01 98 ft / 30 m 4,979 ft / 1,518 m 304.20° 326.29° Asphalt 300 ft / 91 m 0 ft / 0 m
18 148 ft / 45 m 9,915 ft / 3,022 m 161.91° 184.00° Asphalt 1,225 ft / 373 m 0 ft / 0 m
19 98 ft / 30 m 4,979 ft / 1,518 m 124.20° 146.29° Asphalt 300 ft / 91 m 0 ft / 0 m
36 148 ft / 45 m 9,915 ft / 3,022 m 341.91° 4.00° Asphalt 0 ft / 0 m 350 ft / 107 m

SBJP

Details ICAO SBJP (JPA)
Name Presidente Castro Pinto
Region Brazil
Timezone America/Fortaleza (UTC-3.0)
Stats Elevation 215 ft / 66 m (AMSL)
Location -7.148382° -34.950680°
Runways 1
Magnetic Variation 21.767° W

METAR

SBJP 120400Z 10004KT 9999 SCT020 26/24 Q1012

Decode

TAF

TAF SBJP 112200Z 1200/1224 04006KT 9999 SCT020 TN24/1208Z TX31/1215Z BECMG 1210/1212 06011KT BKN025 BECMG 1215/1216 SCT030 BECMG 1220/1221 06006KT RMK PEI

Decode

Destination Runways

ID Width Length Bearing (true) Bearing (mag) Surface Threshold Offset Overrun Length
16 148 ft / 45 m 8,282 ft / 2,524 m 135.67° 157.44° Asphalt 0 ft / 0 m 0 ft / 0 m
34 148 ft / 45 m 8,282 ft / 2,524 m 315.67° 337.44° Asphalt 0 ft / 0 m 200 ft / 61 m

Popular Alternatives